sensor_id;sensor_type;location;lat;lon;timestamp;pressure;altitude;pressure_sealevel;temperature;humidity
64292;BME280;50628;51.008;13.658;2022-08-01T00:04:07;99458.50;;;21.79;65.09
64292;BME280;50628;51.008;13.658;2022-08-01T00:09:10;99449.34;;;21.75;65.64
64292;BME280;50628;51.008;13.658;2022-08-01T00:14:12;99453.03;;;21.80;65.91
64292;BME280;50628;51.008;13.658;2022-08-01T00:19:13;99452.41;;;21.92;65.14
64292;BME280;50628;51.008;13.658;2022-08-01T00:24:17;99448.72;;;21.53;66.46
64292;BME280;50628;51.008;13.658;2022-08-01T00:29:19;99447.69;;;21.41;67.45
64292;BME280;50628;51.008;13.658;2022-08-01T00:34:20;99445.38;;;21.24;66.83
64292;BME280;50628;51.008;13.658;2022-08-01T00:39:24;99448.63;;;21.20;66.65
64292;BME280;50628;51.008;13.658;2022-08-01T00:44:25;99443.91;;;21.08;66.61
64292;BME280;50628;51.008;13.658;2022-08-01T00:49:27;99449.63;;;21.12;66.66
64292;BME280;50628;51.008;13.658;2022-08-01T00:54:31;99447.81;;;21.12;66.17
64292;BME280;50628;51.008;13.658;2022-08-01T00:59:33;99440.91;;;21.25;65.58
64292;BME280;50628;51.008;13.658;2022-08-01T01:04:35;99442.94;;;21.23;64.70
64292;BME280;50628;51.008;13.658;2022-08-01T01:09:46;99436.41;;;21.12;66.16
64292;BME280;50628;51.008;13.658;2022-08-01T01:14:56;99435.97;;;21.08;66.07
64292;BME280;50628;51.008;13.658;2022-08-01T01:20:02;99449.53;;;20.85;67.44
64292;BME280;50628;51.008;13.658;2022-08-01T01:25:26;99438.09;;;20.71;68.42
64292;BME280;50628;51.008;13.658;2022-08-01T01:30:38;99439.09;;;20.70;68.63
64292;BME280;50628;51.008;13.658;2022-08-01T01:35:45;99430.13;;;20.65;68.78
64292;BME280;50628;51.008;13.658;2022-08-01T01:40:49;99425.28;;;20.75;67.50
64292;BME280;50628;51.008;13.658;2022-08-01T01:45:53;99437.03;;;20.59;68.25
64292;BME280;50628;51.008;13.658;2022-08-01T01:50:56;99427.50;;;20.37;69.10
64292;BME280;50628;51.008;13.658;2022-08-01T01:56:00;99426.47;;;20.31;68.48
64292;BME280;50628;51.008;13.658;2022-08-01T02:01:05;99417.28;;;20.27;68.55
64292;BME280;50628;51.008;13.658;2022-08-01T02:06:09;99421.94;;;20.25;68.30
64292;BME280;50628;51.008;13.658;2022-08-01T02:11:13;99425.56;;;20.17;68.54
64292;BME280;50628;51.008;13.658;2022-08-01T02:16:26;99426.13;;;20.13;68.65
64292;BME280;50628;51.008;13.658;2022-08-01T02:21:30;99431.50;;;20.26;68.33
64292;BME280;50628;51.008;13.658;2022-08-01T02:26:38;99423.78;;;20.24;68.10
64292;BME280;50628;51.008;13.658;2022-08-01T02:31:44;99439.06;;;20.36;67.64
64292;BME280;50628;51.008;13.658;2022-08-01T02:36:47;99445.00;;;20.38;67.53
64292;BME280;50628;51.008;13.658;2022-08-01T02:41:56;99461.06;;;20.36;68.75
64292;BME280;50628;51.008;13.658;2022-08-01T02:47:02;99461.25;;;20.35;68.47
64292;BME280;50628;51.008;13.658;2022-08-01T02:52:07;99462.75;;;20.50;68.86
64292;BME280;50628;51.008;13.658;2022-08-01T02:57:10;99445.56;;;20.33;69.50
64292;BME280;50628;51.008;13.658;2022-08-01T03:02:13;99429.69;;;20.26;69.85
64292;BME280;50628;51.008;13.658;2022-08-01T03:07:16;99434.13;;;20.19;70.47
64292;BME280;50628;51.008;13.658;2022-08-01T03:12:24;99443.28;;;20.23;70.38
64292;BME280;50628;51.008;13.658;2022-08-01T03:17:29;99442.47;;;20.23;71.45
64292;BME280;50628;51.008;13.658;2022-08-01T03:22:32;99444.34;;;20.29;71.98
64292;BME280;50628;51.008;13.658;2022-08-01T03:27:36;99449.06;;;20.40;72.50
64292;BME280;50628;51.008;13.658;2022-08-01T03:32:40;99449.16;;;20.19;74.45
64292;BME280;50628;51.008;13.658;2022-08-01T03:37:45;99442.94;;;20.05;75.33
64292;BME280;50628;51.008;13.658;2022-08-01T03:42:50;99446.69;;;19.89;75.66
64292;BME280;50628;51.008;13.658;2022-08-01T03:47:58;99453.81;;;19.88;76.36
64292;BME280;50628;51.008;13.658;2022-08-01T03:53:02;99443.09;;;19.97;75.85
64292;BME280;50628;51.008;13.658;2022-08-01T03:58:06;99448.38;;;19.97;76.17
64292;BME280;50628;51.008;13.658;2022-08-01T04:03:12;99450.78;;;19.70;77.95
64292;BME280;50628;51.008;13.658;2022-08-01T04:08:14;99456.47;;;19.67;79.33
64292;BME280;50628;51.008;13.658;2022-08-01T04:13:16;99463.84;;;19.57;81.53
64292;BME280;50628;51.008;13.658;2022-08-01T04:18:19;99466.50;;;19.35;81.29
64292;BME280;50628;51.008;13.658;2022-08-01T04:23:23;99469.00;;;19.43;80.48
64292;BME280;50628;51.008;13.658;2022-08-01T04:28:25;99469.84;;;19.65;78.97
64292;BME280;50628;51.008;13.658;2022-08-01T04:33:30;99471.56;;;19.73;78.84
64292;BME280;50628;51.008;13.658;2022-08-01T04:38:34;99477.50;;;19.82;77.83
64292;BME280;50628;51.008;13.658;2022-08-01T04:43:37;99478.63;;;19.94;76.70
64292;BME280;50628;51.008;13.658;2022-08-01T04:48:41;99486.09;;;19.91;75.74
64292;BME280;50628;51.008;13.658;2022-08-01T04:53:43;99483.38;;;20.05;74.04
64292;BME280;50628;51.008;13.658;2022-08-01T04:58:46;99486.28;;;20.39;73.00
64292;BME280;50628;51.008;13.658;2022-08-01T05:03:49;99486.47;;;20.37;73.73
64292;BME280;50628;51.008;13.658;2022-08-01T05:08:51;99485.75;;;20.50;73.56
64292;BME280;50628;51.008;13.658;2022-08-01T05:13:53;99496.19;;;20.58;73.81
64292;BME280;50628;51.008;13.658;2022-08-01T05:18:56;99488.31;;;20.43;75.62
64292;BME280;50628;51.008;13.658;2022-08-01T05:23:58;99507.22;;;20.40;76.35
64292;BME280;50628;51.008;13.658;2022-08-01T05:29:00;99505.44;;;20.47;76.96
64292;BME280;50628;51.008;13.658;2022-08-01T05:34:03;99499.75;;;20.50;77.07
64292;BME280;50628;51.008;13.658;2022-08-01T05:39:05;99499.91;;;20.64;76.03
64292;BME280;50628;51.008;13.658;2022-08-01T05:44:06;99497.31;;;20.77;75.33
64292;BME280;50628;51.008;13.658;2022-08-01T05:49:10;99510.16;;;20.80;75.01
64292;BME280;50628;51.008;13.658;2022-08-01T05:54:11;99508.63;;;20.99;74.51
64292;BME280;50628;51.008;13.658;2022-08-01T05:59:13;99508.19;;;20.95;74.74
64292;BME280;50628;51.008;13.658;2022-08-01T06:04:16;99513.25;;;20.90;75.22
64292;BME280;50628;51.008;13.658;2022-08-01T06:09:18;99521.00;;;20.92;75.61
64292;BME280;50628;51.008;13.658;2022-08-01T06:14:20;99522.81;;;20.91;75.84
64292;BME280;50628;51.008;13.658;2022-08-01T06:19:23;99528.94;;;20.92;76.20
64292;BME280;50628;51.008;13.658;2022-08-01T06:24:26;99531.94;;;20.82;76.96
64292;BME280;50628;51.008;13.658;2022-08-01T06:29:30;99531.38;;;20.59;78.10
64292;BME280;50628;51.008;13.658;2022-08-01T06:34:33;99540.13;;;20.59;78.91
64292;BME280;50628;51.008;13.658;2022-08-01T06:39:34;99542.69;;;20.81;77.99
64292;BME280;50628;51.008;13.658;2022-08-01T06:44:36;99547.19;;;20.80;78.31
64292;BME280;50628;51.008;13.658;2022-08-01T06:49:39;99556.38;;;20.56;79.61
64292;BME280;50628;51.008;13.658;2022-08-01T06:54:41;99547.84;;;20.61;79.76
64292;BME280;50628;51.008;13.658;2022-08-01T06:59:43;99553.09;;;20.82;78.99
64292;BME280;50628;51.008;13.658;2022-08-01T07:04:46;99551.19;;;20.48;81.89
64292;BME280;50628;51.008;13.658;2022-08-01T07:09:48;99559.47;;;19.88;88.75
64292;BME280;50628;51.008;13.658;2022-08-01T07:14:49;99572.00;;;19.50;93.85
64292;BME280;50628;51.008;13.658;2022-08-01T07:19:52;99576.88;;;19.17;97.71
64292;BME280;50628;51.008;13.658;2022-08-01T07:24:54;99574.78;;;19.27;99.18
64292;BME280;50628;51.008;13.658;2022-08-01T07:29:56;99576.84;;;19.46;98.29
64292;BME280;50628;51.008;13.658;2022-08-01T07:35:00;99571.19;;;19.50;98.04
64292;BME280;50628;51.008;13.658;2022-08-01T07:40:02;99573.34;;;19.76;98.73
64292;BME280;50628;51.008;13.658;2022-08-01T07:45:05;99578.00;;;19.74;95.97
64292;BME280;50628;51.008;13.658;2022-08-01T07:50:09;99576.69;;;19.84;96.49
64292;BME280;50628;51.008;13.658;2022-08-01T07:55:12;99567.56;;;19.87;96.00
64292;BME280;50628;51.008;13.658;2022-08-01T08:00:15;99573.16;;;20.20;95.31
64292;BME280;50628;51.008;13.658;2022-08-01T08:05:18;99575.13;;;20.40;94.42
64292;BME280;50628;51.008;13.658;2022-08-01T08:10:20;99566.25;;;20.69;91.83
64292;BME280;50628;51.008;13.658;2022-08-01T08:15:22;99579.53;;;20.54;91.09
64292;BME280;50628;51.008;13.658;2022-08-01T08:20:25;99565.84;;;20.72;90.74
64292;BME280;50628;51.008;13.658;2022-08-01T08:25:29;99578.97;;;20.93;90.28
64292;BME280;50628;51.008;13.658;2022-08-01T08:30:31;99576.16;;;20.95;87.94
64292;BME280;50628;51.008;13.658;2022-08-01T08:35:34;99579.63;;;20.95;88.00
64292;BME280;50628;51.008;13.658;2022-08-01T08:40:36;99579.69;;;21.57;86.21
64292;BME280;50628;51.008;13.658;2022-08-01T08:45:38;99572.03;;;21.75;84.33
64292;BME280;50628;51.008;13.658;2022-08-01T08:50:43;99570.19;;;21.76;83.02
64292;BME280;50628;51.008;13.658;2022-08-01T08:55:47;99575.97;;;22.26;80.13
64292;BME280;50628;51.008;13.658;2022-08-01T09:00:49;99575.31;;;22.17;80.63
64292;BME280;50628;51.008;13.658;2022-08-01T09:05:52;99581.28;;;22.19;80.22
64292;BME280;50628;51.008;13.658;2022-08-01T09:10:54;99585.53;;;22.14;79.48
64292;BME280;50628;51.008;13.658;2022-08-01T09:15:56;99579.81;;;22.17;78.76
64292;BME280;50628;51.008;13.658;2022-08-01T09:21:15;99589.84;;;22.41;77.73
64292;BME280;50628;51.008;13.658;2022-08-01T09:26:19;99591.03;;;22.06;79.20
64292;BME280;50628;51.008;13.658;2022-08-01T09:31:21;99578.00;;;22.24;78.42
64292;BME280;50628;51.008;13.658;2022-08-01T09:36:26;99575.53;;;22.69;76.03
64292;BME280;50628;51.008;13.658;2022-08-01T09:41:29;99585.94;;;22.77;74.81
64292;BME280;50628;51.008;13.658;2022-08-01T09:46:32;99578.94;;;23.16;74.18
64292;BME280;50628;51.008;13.658;2022-08-01T09:51:36;99581.16;;;23.26;72.31
64292;BME280;50628;51.008;13.658;2022-08-01T09:56:40;99573.72;;;23.41;71.10
64292;BME280;50628;51.008;13.658;2022-08-01T10:01:44;99582.56;;;23.73;70.99
64292;BME280;50628;51.008;13.658;2022-08-01T10:06:49;99572.03;;;23.02;72.79
64292;BME280;50628;51.008;13.658;2022-08-01T10:11:54;99578.63;;;23.83;69.97
64292;BME280;50628;51.008;13.658;2022-08-01T10:16:58;99583.44;;;23.99;69.20
64292;BME280;50628;51.008;13.658;2022-08-01T10:22:01;99566.66;;;23.98;67.25
64292;BME280;50628;51.008;13.658;2022-08-01T10:27:08;99573.94;;;23.85;67.71
64292;BME280;50628;51.008;13.658;2022-08-01T10:32:10;99588.91;;;23.66;69.09
64292;BME280;50628;51.008;13.658;2022-08-01T10:37:14;99603.50;;;22.32;78.69
64292;BME280;50628;51.008;13.658;2022-08-01T10:42:17;99613.66;;;21.95;78.94
64292;BME280;50628;51.008;13.658;2022-08-01T10:47:25;99606.88;;;21.92;78.58
64292;BME280;50628;51.008;13.658;2022-08-01T10:52:30;99598.34;;;21.97;77.56
64292;BME280;50628;51.008;13.658;2022-08-01T10:57:41;99595.09;;;22.15;77.04
64292;BME280;50628;51.008;13.658;2022-08-01T11:02:58;99598.00;;;22.46;76.42
64292;BME280;50628;51.008;13.658;2022-08-01T11:08:03;99594.94;;;22.63;75.75
64292;BME280;50628;51.008;13.658;2022-08-01T11:13:07;99605.94;;;22.93;75.02
64292;BME280;50628;51.008;13.658;2022-08-01T11:18:30;99601.41;;;23.07;74.82
64292;BME280;50628;51.008;13.658;2022-08-01T11:23:46;99577.16;;;24.18;70.57
64292;BME280;50628;51.008;13.658;2022-08-01T11:29:11;99576.13;;;25.07;67.27
64292;BME280;50628;51.008;13.658;2022-08-01T11:34:13;99573.53;;;24.63;68.30
64292;BME280;50628;51.008;13.658;2022-08-01T11:39:18;99572.81;;;24.49;69.27
64292;BME280;50628;51.008;13.658;2022-08-01T11:44:22;99573.63;;;25.12;65.66
64292;BME280;50628;51.008;13.658;2022-08-01T11:49:29;99570.50;;;25.52;63.05
64292;BME280;50628;51.008;13.658;2022-08-01T11:54:36;99570.53;;;24.96;65.17
64292;BME280;50628;51.008;13.658;2022-08-01T11:59:40;99579.75;;;24.75;63.36
64292;BME280;50628;51.008;13.658;2022-08-01T12:04:48;99571.53;;;26.11;58.49
64292;BME280;50628;51.008;13.658;2022-08-01T12:09:58;99577.41;;;25.04;61.95
64292;BME280;50628;51.008;13.658;2022-08-01T12:15:02;99573.44;;;24.95;61.94
64292;BME280;50628;51.008;13.658;2022-08-01T12:20:06;99577.28;;;25.78;58.00
64292;BME280;50628;51.008;13.658;2022-08-01T12:25:11;99588.94;;;24.98;58.34
64292;BME280;50628;51.008;13.658;2022-08-01T12:30:15;99582.50;;;26.57;54.28
64292;BME280;50628;51.008;13.658;2022-08-01T12:35:19;99575.34;;;26.27;56.56
64292;BME280;50628;51.008;13.658;2022-08-01T12:40:26;99574.97;;;25.02;60.96
64292;BME280;50628;51.008;13.658;2022-08-01T12:45:32;99576.59;;;25.03;59.99
64292;BME280;50628;51.008;13.658;2022-08-01T12:50:37;99580.47;;;26.28;56.15
64292;BME280;50628;51.008;13.658;2022-08-01T12:55:45;99590.41;;;25.79;56.84
64292;BME280;50628;51.008;13.658;2022-08-01T13:00:48;99572.88;;;27.60;51.53
64292;BME280;50628;51.008;13.658;2022-08-01T13:05:52;99570.28;;;26.84;52.18
64292;BME280;50628;51.008;13.658;2022-08-01T13:11:01;99572.59;;;27.45;48.48
64292;BME280;50628;51.008;13.658;2022-08-01T13:16:06;99578.88;;;28.30;46.53
64292;BME280;50628;51.008;13.658;2022-08-01T13:21:10;99573.63;;;28.01;46.44
64292;BME280;50628;51.008;13.658;2022-08-01T13:26:13;99568.75;;;28.32;44.82
64292;BME280;50628;51.008;13.658;2022-08-01T13:31:15;99574.91;;;28.32;44.91
64292;BME280;50628;51.008;13.658;2022-08-01T13:36:17;99575.16;;;28.31;44.80
64292;BME280;50628;51.008;13.658;2022-08-01T13:41:20;99561.06;;;28.18;44.78
64292;BME280;50628;51.008;13.658;2022-08-01T13:46:21;99567.53;;;28.39;44.99
64292;BME280;50628;51.008;13.658;2022-08-01T13:51:23;99574.47;;;28.74;44.33
64292;BME280;50628;51.008;13.658;2022-08-01T13:56:27;99567.13;;;28.14;45.91
64292;BME280;50628;51.008;13.658;2022-08-01T14:01:29;99573.38;;;28.02;46.60
64292;BME280;50628;51.008;13.658;2022-08-01T14:06:31;99578.50;;;28.94;44.65
64292;BME280;50628;51.008;13.658;2022-08-01T14:11:34;99586.72;;;28.70;45.17
64292;BME280;50628;51.008;13.658;2022-08-01T14:16:36;99592.34;;;28.68;45.75
64292;BME280;50628;51.008;13.658;2022-08-01T14:21:39;99584.06;;;27.57;48.27
64292;BME280;50628;51.008;13.658;2022-08-01T14:26:42;99600.66;;;27.07;49.71
64292;BME280;50628;51.008;13.658;2022-08-01T14:31:44;99596.16;;;26.95;50.63
64292;BME280;50628;51.008;13.658;2022-08-01T14:36:46;99599.53;;;27.83;49.03
64292;BME280;50628;51.008;13.658;2022-08-01T14:41:49;99594.69;;;27.69;47.38
64292;BME280;50628;51.008;13.658;2022-08-01T14:46:51;99614.16;;;27.81;47.06
64292;BME280;50628;51.008;13.658;2022-08-01T14:51:53;99605.09;;;28.61;44.54
64292;BME280;50628;51.008;13.658;2022-08-01T14:56:56;99599.88;;;28.04;46.03
64292;BME280;50628;51.008;13.658;2022-08-01T15:01:57;99601.19;;;26.57;48.59
64292;BME280;50628;51.008;13.658;2022-08-01T15:06:59;99613.09;;;27.25;46.63
64292;BME280;50628;51.008;13.658;2022-08-01T15:12:03;99613.22;;;27.58;45.55
64292;BME280;50628;51.008;13.658;2022-08-01T15:17:04;99622.78;;;27.43;46.17
64292;BME280;50628;51.008;13.658;2022-08-01T15:22:08;99620.44;;;26.94;48.13
64292;BME280;50628;51.008;13.658;2022-08-01T15:27:11;99612.56;;;28.25;44.80
64292;BME280;50628;51.008;13.658;2022-08-01T15:32:13;99615.84;;;28.83;42.93
64292;BME280;50628;51.008;13.658;2022-08-01T15:37:14;99619.44;;;27.35;46.65
64292;BME280;50628;51.008;13.658;2022-08-01T15:42:17;99630.50;;;27.68;44.85
64292;BME280;50628;51.008;13.658;2022-08-01T15:47:19;99623.31;;;27.28;45.73
64292;BME280;50628;51.008;13.658;2022-08-01T15:52:21;99633.88;;;27.11;46.04
64292;BME280;50628;51.008;13.658;2022-08-01T15:57:24;99622.16;;;26.88;47.71
64292;BME280;50628;51.008;13.658;2022-08-01T16:02:26;99622.66;;;26.62;47.49
64292;BME280;50628;51.008;13.658;2022-08-01T16:07:28;99645.25;;;26.71;47.64
64292;BME280;50628;51.008;13.658;2022-08-01T16:12:31;99639.56;;;27.03;47.09
64292;BME280;50628;51.008;13.658;2022-08-01T16:17:33;99625.84;;;27.11;46.26
64292;BME280;50628;51.008;13.658;2022-08-01T16:22:35;99630.19;;;26.76;47.10
64292;BME280;50628;51.008;13.658;2022-08-01T16:27:39;99626.56;;;26.71;48.14
64292;BME280;50628;51.008;13.658;2022-08-01T16:32:40;99615.44;;;26.74;48.04
64292;BME280;50628;51.008;13.658;2022-08-01T16:37:42;99634.78;;;25.92;50.19
64292;BME280;50628;51.008;13.658;2022-08-01T16:42:45;99639.63;;;25.95;50.03
64292;BME280;50628;51.008;13.658;2022-08-01T16:47:47;99642.47;;;25.82;49.93
64292;BME280;50628;51.008;13.658;2022-08-01T16:52:49;99639.38;;;25.85;50.12
64292;BME280;50628;51.008;13.658;2022-08-01T16:57:52;99636.09;;;25.83;50.78
64292;BME280;50628;51.008;13.658;2022-08-01T17:02:54;99640.19;;;25.85;50.48
64292;BME280;50628;51.008;13.658;2022-08-01T17:07:55;99636.22;;;25.58;51.20
64292;BME280;50628;51.008;13.658;2022-08-01T17:12:59;99632.44;;;25.47;51.39
64292;BME280;50628;51.008;13.658;2022-08-01T17:18:02;99643.81;;;25.73;49.41
64292;BME280;50628;51.008;13.658;2022-08-01T17:23:04;99643.09;;;25.65;50.15
64292;BME280;50628;51.008;13.658;2022-08-01T17:28:07;99641.31;;;25.59;49.48
64292;BME280;50628;51.008;13.658;2022-08-01T17:33:09;99646.97;;;25.51;48.79
64292;BME280;50628;51.008;13.658;2022-08-01T17:38:11;99648.97;;;25.37;49.41
64292;BME280;50628;51.008;13.658;2022-08-01T17:43:14;99655.56;;;25.10;50.65
64292;BME280;50628;51.008;13.658;2022-08-01T17:48:16;99651.03;;;25.17;51.08
64292;BME280;50628;51.008;13.658;2022-08-01T17:53:18;99659.34;;;25.02;50.86
64292;BME280;50628;51.008;13.658;2022-08-01T17:58:21;99672.19;;;24.87;51.56
64292;BME280;50628;51.008;13.658;2022-08-01T18:03:23;99666.38;;;24.71;51.74
64292;BME280;50628;51.008;13.658;2022-08-01T18:08:25;99673.59;;;24.64;52.08
64292;BME280;50628;51.008;13.658;2022-08-01T18:13:30;99673.78;;;24.69;52.84
64292;BME280;50628;51.008;13.658;2022-08-01T18:18:32;99675.88;;;24.67;52.66
64292;BME280;50628;51.008;13.658;2022-08-01T18:23:34;99683.06;;;24.60;52.95
64292;BME280;50628;51.008;13.658;2022-08-01T18:28:37;99682.03;;;24.29;53.84
64292;BME280;50628;51.008;13.658;2022-08-01T18:33:40;99681.66;;;24.19;54.28
64292;BME280;50628;51.008;13.658;2022-08-01T18:38:42;99690.44;;;24.26;54.15
64292;BME280;50628;51.008;13.658;2022-08-01T18:43:45;99698.31;;;24.08;55.21
64292;BME280;50628;51.008;13.658;2022-08-01T18:48:48;99707.88;;;23.77;56.31
64292;BME280;50628;51.008;13.658;2022-08-01T18:53:50;99713.38;;;23.82;56.23
64292;BME280;50628;51.008;13.658;2022-08-01T18:58:56;99716.84;;;23.83;56.38
64292;BME280;50628;51.008;13.658;2022-08-01T19:03:58;99715.22;;;23.68;56.83
64292;BME280;50628;51.008;13.658;2022-08-01T19:09:00;99720.00;;;23.40;58.00
64292;BME280;50628;51.008;13.658;2022-08-01T19:14:04;99731.66;;;23.32;57.81
64292;BME280;50628;51.008;13.658;2022-08-01T19:19:06;99742.50;;;23.37;57.76
64292;BME280;50628;51.008;13.658;2022-08-01T19:24:08;99741.88;;;23.42;57.88
64292;BME280;50628;51.008;13.658;2022-08-01T19:29:23;99763.72;;;23.37;57.80
64292;BME280;50628;51.008;13.658;2022-08-01T19:34:27;99767.63;;;23.35;58.59
64292;BME280;50628;51.008;13.658;2022-08-01T19:39:29;99775.56;;;22.95;59.84
64292;BME280;50628;51.008;13.658;2022-08-01T19:44:32;99790.03;;;22.72;60.79
64292;BME280;50628;51.008;13.658;2022-08-01T19:49:34;99792.63;;;22.52;61.97
64292;BME280;50628;51.008;13.658;2022-08-01T19:54:40;99796.63;;;22.21;63.15
64292;BME280;50628;51.008;13.658;2022-08-01T19:59:45;99792.19;;;22.35;62.43
64292;BME280;50628;51.008;13.658;2022-08-01T20:04:47;99809.81;;;22.08;63.61
64292;BME280;50628;51.008;13.658;2022-08-01T20:09:49;99813.75;;;21.84;64.90
64292;BME280;50628;51.008;13.658;2022-08-01T20:14:53;99822.03;;;21.74;65.62
64292;BME280;50628;51.008;13.658;2022-08-01T20:19:55;99833.25;;;21.70;66.37
64292;BME280;50628;51.008;13.658;2022-08-01T20:24:58;99820.84;;;21.49;66.93
64292;BME280;50628;51.008;13.658;2022-08-01T20:30:03;99828.81;;;21.27;67.99
64292;BME280;50628;51.008;13.658;2022-08-01T20:35:05;99834.69;;;21.23;67.96
64292;BME280;50628;51.008;13.658;2022-08-01T20:40:09;99834.03;;;21.21;68.34
64292;BME280;50628;51.008;13.658;2022-08-01T20:45:14;99844.28;;;21.02;69.25
64292;BME280;50628;51.008;13.658;2022-08-01T20:50:16;99843.44;;;21.02;69.60
64292;BME280;50628;51.008;13.658;2022-08-01T20:55:43;99848.28;;;20.98;69.51
64292;BME280;50628;51.008;13.658;2022-08-01T21:00:47;99846.38;;;20.70;70.34
64292;BME280;50628;51.008;13.658;2022-08-01T21:05:56;99849.31;;;20.46;71.29
64292;BME280;50628;51.008;13.658;2022-08-01T21:11:01;99845.22;;;20.43;72.10
64292;BME280;50628;51.008;13.658;2022-08-01T21:16:07;99855.19;;;20.41;72.31
64292;BME280;50628;51.008;13.658;2022-08-01T21:21:14;99852.56;;;20.26;72.27
64292;BME280;50628;51.008;13.658;2022-08-01T21:26:18;99855.09;;;20.20;72.79
64292;BME280;50628;51.008;13.658;2022-08-01T21:31:21;99855.56;;;20.08;73.23
64292;BME280;50628;51.008;13.658;2022-08-01T21:36:25;99867.13;;;19.93;73.99
64292;BME280;50628;51.008;13.658;2022-08-01T21:41:27;99858.91;;;20.02;73.97
64292;BME280;50628;51.008;13.658;2022-08-01T21:46:32;99862.00;;;19.76;74.86
64292;BME280;50628;51.008;13.658;2022-08-01T21:51:40;99877.69;;;19.93;74.45
64292;BME280;50628;51.008;13.658;2022-08-01T21:56:50;99869.81;;;19.70;74.81
64292;BME280;50628;51.008;13.658;2022-08-01T22:02:01;99877.81;;;19.61;75.23
64292;BME280;50628;51.008;13.658;2022-08-01T22:07:05;99892.72;;;19.54;75.51
64292;BME280;50628;51.008;13.658;2022-08-01T22:12:10;99885.69;;;19.46;75.96
64292;BME280;50628;51.008;13.658;2022-08-01T22:17:20;99891.69;;;19.40;76.26
64292;BME280;50628;51.008;13.658;2022-08-01T22:22:24;99896.84;;;19.34;76.50
64292;BME280;50628;51.008;13.658;2022-08-01T22:27:26;99901.00;;;19.28;77.03
64292;BME280;50628;51.008;13.658;2022-08-01T22:32:31;99908.91;;;19.28;76.98
64292;BME280;50628;51.008;13.658;2022-08-01T22:37:33;99907.19;;;19.12;77.42
64292;BME280;50628;51.008;13.658;2022-08-01T22:42:38;99909.31;;;19.17;77.25
64292;BME280;50628;51.008;13.658;2022-08-01T22:47:51;99900.94;;;19.13;77.37
64292;BME280;50628;51.008;13.658;2022-08-01T22:52:59;99897.81;;;19.10;77.69
64292;BME280;50628;51.008;13.658;2022-08-01T22:58:03;99906.00;;;18.92;78.22
64292;BME280;50628;51.008;13.658;2022-08-01T23:03:13;99914.69;;;18.77;79.13
64292;BME280;50628;51.008;13.658;2022-08-01T23:08:15;99914.03;;;18.75;79.08
64292;BME280;50628;51.008;13.658;2022-08-01T23:13:18;99908.56;;;18.69;79.24
64292;BME280;50628;51.008;13.658;2022-08-01T23:18:22;99905.13;;;18.68;79.89
64292;BME280;50628;51.008;13.658;2022-08-01T23:23:26;99910.91;;;18.64;79.81
64292;BME280;50628;51.008;13.658;2022-08-01T23:28:28;99918.03;;;18.47;80.39
64292;BME280;50628;51.008;13.658;2022-08-01T23:33:31;99911.84;;;18.40;80.70
64292;BME280;50628;51.008;13.658;2022-08-01T23:38:33;99911.41;;;18.20;81.63
64292;BME280;50628;51.008;13.658;2022-08-01T23:43:35;99910.88;;;18.32;81.20
64292;BME280;50628;51.008;13.658;2022-08-01T23:48:38;99918.78;;;18.32;81.34
64292;BME280;50628;51.008;13.658;2022-08-01T23:53:40;99919.97;;;18.13;81.96
64292;BME280;50628;51.008;13.658;2022-08-01T23:58:42;99908.44;;;18.06;82.26
